sensor_id;sensor_type;location;lat;lon;timestamp;pressure;altitude;pressure_sealevel;temperature;humidity
34034;BME280;63481;52.588;22.472;2023-07-30T00:00:14;99310.58;;;19.16;83.38
34034;BME280;63481;52.588;22.472;2023-07-30T00:01:06;99310.48;;;19.16;83.46
34034;BME280;63481;52.588;22.472;2023-07-30T00:01:44;99310.26;;;19.11;83.61
34034;BME280;63481;52.588;22.472;2023-07-30T00:02:19;99308.98;;;19.09;83.78
34034;BME280;63481;52.588;22.472;2023-07-30T00:02:51;99307.67;;;19.11;83.85
34034;BME280;63481;52.588;22.472;2023-07-30T00:03:23;99308.83;;;19.09;84.02
34034;BME280;63481;52.588;22.472;2023-07-30T00:03:54;99307.91;;;19.08;83.98
34034;BME280;63481;52.588;22.472;2023-07-30T00:04:26;99307.65;;;19.07;84.13
34034;BME280;63481;52.588;22.472;2023-07-30T00:04:58;99304.36;;;19.07;84.33
34034;BME280;63481;52.588;22.472;2023-07-30T00:05:30;99305.06;;;19.06;84.35
34034;BME280;63481;52.588;22.472;2023-07-30T00:06:02;99306.23;;;19.02;84.59
34034;BME280;63481;52.588;22.472;2023-07-30T00:06:34;99304.52;;;19.01;84.66
34034;BME280;63481;52.588;22.472;2023-07-30T00:07:06;99305.02;;;18.98;84.95
34034;BME280;63481;52.588;22.472;2023-07-30T00:07:37;99304.03;;;19.01;84.82
34034;BME280;63481;52.588;22.472;2023-07-30T00:08:09;99308.09;;;19.00;84.78
34034;BME280;63481;52.588;22.472;2023-07-30T00:08:41;99305.54;;;19.01;84.77
34034;BME280;63481;52.588;22.472;2023-07-30T00:09:13;99302.77;;;19.03;84.80
34034;BME280;63481;52.588;22.472;2023-07-30T00:09:45;99305.19;;;19.03;84.73
34034;BME280;63481;52.588;22.472;2023-07-30T00:10:16;99303.94;;;19.05;84.70
34034;BME280;63481;52.588;22.472;2023-07-30T00:10:49;99306.45;;;19.01;84.75
34034;BME280;63481;52.588;22.472;2023-07-30T00:11:21;99301.62;;;18.98;84.93
34034;BME280;63481;52.588;22.472;2023-07-30T00:11:53;99301.63;;;18.96;85.07
34034;BME280;63481;52.588;22.472;2023-07-30T00:12:25;99303.28;;;18.92;85.41
34034;BME280;63481;52.588;22.472;2023-07-30T00:12:56;99300.27;;;18.94;85.28
34034;BME280;63481;52.588;22.472;2023-07-30T00:13:28;99301.20;;;18.97;85.32
34034;BME280;63481;52.588;22.472;2023-07-30T00:14:00;99300.65;;;18.97;85.32
34034;BME280;63481;52.588;22.472;2023-07-30T00:14:32;99300.55;;;18.95;85.57
34034;BME280;63481;52.588;22.472;2023-07-30T00:15:04;99294.81;;;18.92;85.85
34034;BME280;63481;52.588;22.472;2023-07-30T00:15:36;99295.05;;;18.89;86.12
34034;BME280;63481;52.588;22.472;2023-07-30T00:16:08;99299.07;;;18.88;86.30
34034;BME280;63481;52.588;22.472;2023-07-30T00:16:40;99294.65;;;18.86;86.43
34034;BME280;63481;52.588;22.472;2023-07-30T00:17:12;99294.98;;;18.87;86.46
34034;BME280;63481;52.588;22.472;2023-07-30T00:17:43;99291.86;;;18.85;86.67
34034;BME280;63481;52.588;22.472;2023-07-30T00:18:16;99291.00;;;18.83;86.86
34034;BME280;63481;52.588;22.472;2023-07-30T00:18:48;99288.27;;;18.80;86.95
34034;BME280;63481;52.588;22.472;2023-07-30T00:19:20;99285.73;;;18.80;87.01
34034;BME280;63481;52.588;22.472;2023-07-30T00:19:52;99284.39;;;18.79;87.27
34034;BME280;63481;52.588;22.472;2023-07-30T00:20:24;99279.66;;;18.77;87.49
34034;BME280;63481;52.588;22.472;2023-07-30T00:20:55;99280.84;;;18.78;87.53
34034;BME280;63481;52.588;22.472;2023-07-30T00:21:27;99280.50;;;18.78;87.60
34034;BME280;63481;52.588;22.472;2023-07-30T00:21:59;99278.77;;;18.80;87.71
34034;BME280;63481;52.588;22.472;2023-07-30T00:22:31;99271.15;;;18.80;87.54
34034;BME280;63481;52.588;22.472;2023-07-30T00:23:03;99268.98;;;18.79;87.82
34034;BME280;63481;52.588;22.472;2023-07-30T00:23:35;99272.94;;;18.83;87.68
34034;BME280;63481;52.588;22.472;2023-07-30T00:24:07;99272.03;;;18.83;87.48
34034;BME280;63481;52.588;22.472;2023-07-30T00:24:39;99269.34;;;18.82;87.45
34034;BME280;63481;52.588;22.472;2023-07-30T00:25:10;99267.83;;;18.81;87.72
34034;BME280;63481;52.588;22.472;2023-07-30T00:25:42;99267.13;;;18.81;87.67
34034;BME280;63481;52.588;22.472;2023-07-30T00:26:14;99265.31;;;18.80;87.77
34034;BME280;63481;52.588;22.472;2023-07-30T00:26:46;99262.86;;;18.81;87.70
34034;BME280;63481;52.588;22.472;2023-07-30T00:27:18;99263.89;;;18.82;87.33
34034;BME280;63481;52.588;22.472;2023-07-30T00:27:50;99264.61;;;18.84;87.41
34034;BME280;63481;52.588;22.472;2023-07-30T00:28:22;99266.63;;;18.84;87.37
34034;BME280;63481;52.588;22.472;2023-07-30T00:28:53;99270.64;;;18.82;87.43
34034;BME280;63481;52.588;22.472;2023-07-30T00:29:25;99266.91;;;18.76;88.07
34034;BME280;63481;52.588;22.472;2023-07-30T00:29:57;99269.52;;;18.79;88.22
34034;BME280;63481;52.588;22.472;2023-07-30T00:30:29;99272.77;;;18.84;88.33
34034;BME280;63481;52.588;22.472;2023-07-30T00:31:01;99268.88;;;18.85;88.21
34034;BME280;63481;52.588;22.472;2023-07-30T00:31:33;99270.16;;;18.86;88.39
34034;BME280;63481;52.588;22.472;2023-07-30T00:32:05;99270.99;;;18.84;88.44
34034;BME280;63481;52.588;22.472;2023-07-30T00:32:37;99267.11;;;18.79;88.45
34034;BME280;63481;52.588;22.472;2023-07-30T00:33:14;99268.66;;;18.73;87.76
34034;BME280;63481;52.588;22.472;2023-07-30T00:33:46;99264.52;;;18.72;87.82
34034;BME280;63481;52.588;22.472;2023-07-30T00:34:18;99263.46;;;18.67;87.82
34034;BME280;63481;52.588;22.472;2023-07-30T00:34:50;99265.34;;;18.63;88.66
34034;BME280;63481;52.588;22.472;2023-07-30T00:35:22;99265.41;;;18.60;89.21
34034;BME280;63481;52.588;22.472;2023-07-30T00:35:54;99268.02;;;18.60;89.52
34034;BME280;63481;52.588;22.472;2023-07-30T00:36:25;99264.41;;;18.64;90.04
34034;BME280;63481;52.588;22.472;2023-07-30T00:36:57;99266.77;;;18.74;90.31
34034;BME280;63481;52.588;22.472;2023-07-30T00:37:29;99263.48;;;18.77;90.28
34034;BME280;63481;52.588;22.472;2023-07-30T00:38:01;99263.11;;;18.89;89.92
34034;BME280;63481;52.588;22.472;2023-07-30T00:38:33;99257.04;;;18.98;89.21
34034;BME280;63481;52.588;22.472;2023-07-30T00:39:04;99257.89;;;19.04;88.88
34034;BME280;63481;52.588;22.472;2023-07-30T00:39:37;99254.73;;;19.07;88.65
34034;BME280;63481;52.588;22.472;2023-07-30T00:40:09;99258.75;;;19.05;88.37
34034;BME280;63481;52.588;22.472;2023-07-30T00:40:41;99256.15;;;19.00;88.28
34034;BME280;63481;52.588;22.472;2023-07-30T00:41:13;99259.44;;;18.95;88.38
34034;BME280;63481;52.588;22.472;2023-07-30T00:41:45;99257.84;;;18.87;88.73
34034;BME280;63481;52.588;22.472;2023-07-30T00:42:17;99257.03;;;18.75;89.44
34034;BME280;63481;52.588;22.472;2023-07-30T00:42:51;99259.55;;;18.64;90.13
34034;BME280;63481;52.588;22.472;2023-07-30T00:43:23;99259.08;;;18.56;90.64
34034;BME280;63481;52.588;22.472;2023-07-30T00:43:55;99260.05;;;18.50;91.13
34034;BME280;63481;52.588;22.472;2023-07-30T00:44:26;99259.98;;;18.46;91.65
34034;BME280;63481;52.588;22.472;2023-07-30T00:44:58;99260.31;;;18.51;92.09
34034;BME280;63481;52.588;22.472;2023-07-30T00:45:30;99260.20;;;18.47;92.25
34034;BME280;63481;52.588;22.472;2023-07-30T00:46:03;99261.15;;;18.42;93.00
34034;BME280;63481;52.588;22.472;2023-07-30T00:46:36;99265.77;;;18.49;93.15
34034;BME280;63481;52.588;22.472;2023-07-30T00:47:09;99270.61;;;18.42;93.40
34034;BME280;63481;52.588;22.472;2023-07-30T00:47:41;99280.05;;;18.36;93.82
34034;BME280;63481;52.588;22.472;2023-07-30T00:48:14;99284.64;;;18.18;94.50
34034;BME280;63481;52.588;22.472;2023-07-30T00:48:47;99289.67;;;18.05;95.12
34034;BME280;63481;52.588;22.472;2023-07-30T00:49:20;99288.55;;;17.93;95.78
34034;BME280;63481;52.588;22.472;2023-07-30T00:49:52;99290.52;;;17.89;96.07
34034;BME280;63481;52.588;22.472;2023-07-30T00:50:25;99290.52;;;17.87;96.72
34034;BME280;63481;52.588;22.472;2023-07-30T00:50:59;99289.52;;;17.79;97.15
34034;BME280;63481;52.588;22.472;2023-07-30T00:51:33;99287.43;;;17.77;97.45
34034;BME280;63481;52.588;22.472;2023-07-30T00:52:07;99287.84;;;17.83;97.50
34034;BME280;63481;52.588;22.472;2023-07-30T00:52:43;99281.38;;;17.82;97.80
34034;BME280;63481;52.588;22.472;2023-07-30T00:53:16;99275.73;;;17.76;98.00
34034;BME280;63481;52.588;22.472;2023-07-30T00:53:49;99274.02;;;17.74;98.24
34034;BME280;63481;52.588;22.472;2023-07-30T00:54:21;99271.58;;;17.76;98.39
34034;BME280;63481;52.588;22.472;2023-07-30T00:54:54;99270.91;;;17.80;98.64
34034;BME280;63481;52.588;22.472;2023-07-30T00:55:28;99270.19;;;17.85;98.36
34034;BME280;63481;52.588;22.472;2023-07-30T00:56:00;99270.62;;;17.87;98.30
34034;BME280;63481;52.588;22.472;2023-07-30T00:56:32;99269.25;;;17.80;98.12
34034;BME280;63481;52.588;22.472;2023-07-30T00:57:04;99269.97;;;17.75;98.28
34034;BME280;63481;52.588;22.472;2023-07-30T00:57:39;99271.44;;;17.72;98.47
34034;BME280;63481;52.588;22.472;2023-07-30T00:58:11;99274.15;;;17.69;98.59
34034;BME280;63481;52.588;22.472;2023-07-30T00:58:46;99277.73;;;17.66;98.83
34034;BME280;63481;52.588;22.472;2023-07-30T00:59:20;99273.58;;;17.62;99.06
34034;BME280;63481;52.588;22.472;2023-07-30T00:59:52;99271.96;;;17.62;99.23
34034;BME280;63481;52.588;22.472;2023-07-30T01:00:25;99269.60;;;17.63;99.30
34034;BME280;63481;52.588;22.472;2023-07-30T01:00:58;99269.41;;;17.65;99.34
34034;BME280;63481;52.588;22.472;2023-07-30T01:01:33;99271.05;;;17.63;99.37
34034;BME280;63481;52.588;22.472;2023-07-30T01:02:05;99272.83;;;17.62;99.54
34034;BME280;63481;52.588;22.472;2023-07-30T01:02:37;99267.59;;;17.65;99.62
34034;BME280;63481;52.588;22.472;2023-07-30T01:03:10;99263.04;;;17.69;99.58
34034;BME280;63481;52.588;22.472;2023-07-30T01:03:42;99263.08;;;17.76;99.27
34034;BME280;63481;52.588;22.472;2023-07-30T01:04:15;99258.36;;;17.79;99.18
34034;BME280;63481;52.588;22.472;2023-07-30T01:04:47;99257.33;;;17.81;98.86
34034;BME280;63481;52.588;22.472;2023-07-30T01:05:19;99256.37;;;17.77;98.82
34034;BME280;63481;52.588;22.472;2023-07-30T01:05:52;99257.52;;;17.84;98.77
34034;BME280;63481;52.588;22.472;2023-07-30T01:06:24;99254.20;;;17.88;98.53
34034;BME280;63481;52.588;22.472;2023-07-30T01:06:56;99252.58;;;17.90;98.59
34034;BME280;63481;52.588;22.472;2023-07-30T01:07:28;99253.45;;;17.91;98.40
34034;BME280;63481;52.588;22.472;2023-07-30T01:08:00;99255.71;;;17.90;98.21
34034;BME280;63481;52.588;22.472;2023-07-30T01:08:32;99253.95;;;17.88;98.29
34034;BME280;63481;52.588;22.472;2023-07-30T01:09:04;99253.55;;;17.89;98.28
34034;BME280;63481;52.588;22.472;2023-07-30T01:09:36;99249.11;;;17.84;98.22
34034;BME280;63481;52.588;22.472;2023-07-30T01:10:08;99245.83;;;17.82;98.50
34034;BME280;63481;52.588;22.472;2023-07-30T01:10:41;99246.67;;;17.83;98.68
34034;BME280;63481;52.588;22.472;2023-07-30T01:11:14;99242.81;;;17.78;98.78
34034;BME280;63481;52.588;22.472;2023-07-30T01:11:46;99241.13;;;17.72;99.14
34034;BME280;63481;52.588;22.472;2023-07-30T01:12:19;99240.21;;;17.62;99.54
34034;BME280;63481;52.588;22.472;2023-07-30T01:12:52;99236.77;;;17.57;99.91
34034;BME280;63481;52.588;22.472;2023-07-30T01:13:24;99234.23;;;17.56;100.00
34034;BME280;63481;52.588;22.472;2023-07-30T01:13:57;99234.30;;;17.47;100.00
34034;BME280;63481;52.588;22.472;2023-07-30T01:14:30;99235.73;;;17.40;100.00
34034;BME280;63481;52.588;22.472;2023-07-30T01:15:04;99235.03;;;17.37;100.00
34034;BME280;63481;52.588;22.472;2023-07-30T01:15:36;99233.61;;;17.32;100.00
34034;BME280;63481;52.588;22.472;2023-07-30T01:16:09;99233.77;;;17.28;100.00
34034;BME280;63481;52.588;22.472;2023-07-30T01:16:41;99233.52;;;17.25;100.00
34034;BME280;63481;52.588;22.472;2023-07-30T01:17:13;99234.81;;;17.22;100.00
34034;BME280;63481;52.588;22.472;2023-07-30T01:17:45;99239.88;;;17.22;100.00
34034;BME280;63481;52.588;22.472;2023-07-30T01:18:17;99237.63;;;17.22;100.00
34034;BME280;63481;52.588;22.472;2023-07-30T01:18:49;99235.98;;;17.23;100.00
34034;BME280;63481;52.588;22.472;2023-07-30T01:19:22;99235.84;;;17.24;100.00
34034;BME280;63481;52.588;22.472;2023-07-30T01:19:53;99236.16;;;17.26;100.00
34034;BME280;63481;52.588;22.472;2023-07-30T01:20:31;99235.39;;;17.31;100.00
34034;BME280;63481;52.588;22.472;2023-07-30T01:21:03;99233.88;;;17.34;100.00
34034;BME280;63481;52.588;22.472;2023-07-30T01:21:36;99237.16;;;17.33;100.00
34034;BME280;63481;52.588;22.472;2023-07-30T01:22:08;99235.55;;;17.29;100.00
34034;BME280;63481;52.588;22.472;2023-07-30T01:22:40;99237.94;;;17.27;100.00
34034;BME280;63481;52.588;22.472;2023-07-30T01:23:12;99240.09;;;17.26;100.00
34034;BME280;63481;52.588;22.472;2023-07-30T01:23:44;99236.73;;;17.28;100.00
34034;BME280;63481;52.588;22.472;2023-07-30T01:24:16;99238.29;;;17.34;100.00
34034;BME280;63481;52.588;22.472;2023-07-30T01:24:48;99240.48;;;17.37;100.00
34034;BME280;63481;52.588;22.472;2023-07-30T01:25:22;99240.00;;;17.39;100.00
34034;BME280;63481;52.588;22.472;2023-07-30T01:26:27;99245.64;;;17.44;100.00
34034;BME280;63481;52.588;22.472;2023-07-30T01:27:02;99255.27;;;17.48;100.00
34034;BME280;63481;52.588;22.472;2023-07-30T01:27:38;99258.80;;;17.40;100.00
34034;BME280;63481;52.588;22.472;2023-07-30T01:28:16;99261.96;;;17.31;100.00
34034;BME280;63481;52.588;22.472;2023-07-30T01:28:51;99263.05;;;17.28;100.00
34034;BME280;63481;52.588;22.472;2023-07-30T01:29:30;99260.12;;;17.33;100.00
34034;BME280;63481;52.588;22.472;2023-07-30T01:30:09;99259.16;;;17.30;100.00
34034;BME280;63481;52.588;22.472;2023-07-30T01:30:45;99256.24;;;17.29;100.00
34034;BME280;63481;52.588;22.472;2023-07-30T01:31:18;99254.75;;;17.28;100.00
34034;BME280;63481;52.588;22.472;2023-07-30T01:31:54;99252.94;;;17.37;100.00
34034;BME280;63481;52.588;22.472;2023-07-30T01:32:28;99244.68;;;17.39;100.00
34034;BME280;63481;52.588;22.472;2023-07-30T01:33:03;99243.34;;;17.36;100.00
34034;BME280;63481;52.588;22.472;2023-07-30T01:33:37;99238.01;;;17.37;100.00
34034;BME280;63481;52.588;22.472;2023-07-30T01:34:10;99239.89;;;17.35;100.00
34034;BME280;63481;52.588;22.472;2023-07-30T01:34:46;99241.52;;;17.35;100.00
34034;BME280;63481;52.588;22.472;2023-07-30T01:35:23;99248.36;;;17.38;100.00
34034;BME280;63481;52.588;22.472;2023-07-30T01:35:57;99248.02;;;17.44;100.00
34034;BME280;63481;52.588;22.472;2023-07-30T01:36:31;99251.90;;;17.46;100.00
34034;BME280;63481;52.588;22.472;2023-07-30T01:37:05;99252.59;;;17.44;100.00
34034;BME280;63481;52.588;22.472;2023-07-30T01:37:41;99251.85;;;17.41;100.00
34034;BME280;63481;52.588;22.472;2023-07-30T01:38:13;99249.60;;;17.38;100.00
34034;BME280;63481;52.588;22.472;2023-07-30T01:38:46;99250.14;;;17.36;100.00
34034;BME280;63481;52.588;22.472;2023-07-30T01:39:20;99248.46;;;17.38;100.00
34034;BME280;63481;52.588;22.472;2023-07-30T01:39:53;99250.62;;;17.39;100.00
34034;BME280;63481;52.588;22.472;2023-07-30T01:40:25;99249.00;;;17.39;100.00
34034;BME280;63481;52.588;22.472;2023-07-30T01:40:58;99247.86;;;17.41;100.00
34034;BME280;63481;52.588;22.472;2023-07-30T01:41:30;99248.16;;;17.42;100.00
34034;BME280;63481;52.588;22.472;2023-07-30T01:42:02;99254.83;;;17.38;100.00
34034;BME280;63481;52.588;22.472;2023-07-30T01:42:34;99256.14;;;17.32;100.00
34034;BME280;63481;52.588;22.472;2023-07-30T01:43:07;99254.95;;;17.31;100.00
34034;BME280;63481;52.588;22.472;2023-07-30T01:43:38;99257.54;;;17.31;100.00
34034;BME280;63481;52.588;22.472;2023-07-30T01:44:10;99256.30;;;17.32;100.00
34034;BME280;63481;52.588;22.472;2023-07-30T01:44:42;99254.89;;;17.32;100.00
34034;BME280;63481;52.588;22.472;2023-07-30T01:45:14;99252.09;;;17.33;100.00
34034;BME280;63481;52.588;22.472;2023-07-30T01:45:46;99254.20;;;17.32;100.00
34034;BME280;63481;52.588;22.472;2023-07-30T01:46:18;99255.16;;;17.30;100.00
34034;BME280;63481;52.588;22.472;2023-07-30T01:46:50;99257.40;;;17.26;100.00
34034;BME280;63481;52.588;22.472;2023-07-30T01:47:22;99257.51;;;17.24;100.00
34034;BME280;63481;52.588;22.472;2023-07-30T01:47:54;99258.75;;;17.22;100.00
34034;BME280;63481;52.588;22.472;2023-07-30T01:48:26;99257.63;;;17.21;100.00
34034;BME280;63481;52.588;22.472;2023-07-30T01:48:58;99258.17;;;17.20;100.00
34034;BME280;63481;52.588;22.472;2023-07-30T01:49:30;99257.74;;;17.17;100.00
34034;BME280;63481;52.588;22.472;2023-07-30T01:50:02;99254.35;;;17.14;100.00
34034;BME280;63481;52.588;22.472;2023-07-30T01:50:34;99254.69;;;17.14;100.00
34034;BME280;63481;52.588;22.472;2023-07-30T01:51:06;99256.34;;;17.15;100.00
34034;BME280;63481;52.588;22.472;2023-07-30T01:51:38;99256.08;;;17.14;100.00
34034;BME280;63481;52.588;22.472;2023-07-30T01:52:10;99254.08;;;17.15;100.00
34034;BME280;63481;52.588;22.472;2023-07-30T01:52:42;99256.56;;;17.17;100.00
34034;BME280;63481;52.588;22.472;2023-07-30T01:53:14;99259.84;;;17.16;100.00
34034;BME280;63481;52.588;22.472;2023-07-30T01:53:48;99257.79;;;17.15;100.00
34034;BME280;63481;52.588;22.472;2023-07-30T01:54:19;99258.81;;;17.13;100.00
34034;BME280;63481;52.588;22.472;2023-07-30T01:54:51;99256.73;;;17.15;100.00
34034;BME280;63481;52.588;22.472;2023-07-30T01:55:23;99258.06;;;17.18;100.00
34034;BME280;63481;52.588;22.472;2023-07-30T01:55:55;99259.79;;;17.18;100.00
34034;BME280;63481;52.588;22.472;2023-07-30T01:56:28;99255.31;;;17.19;100.00
34034;BME280;63481;52.588;22.472;2023-07-30T01:57:00;99260.86;;;17.19;100.00
34034;BME280;63481;52.588;22.472;2023-07-30T01:57:32;99258.81;;;17.15;100.00
34034;BME280;63481;52.588;22.472;2023-07-30T01:58:04;99261.83;;;17.16;100.00
34034;BME280;63481;52.588;22.472;2023-07-30T01:58:36;99258.86;;;17.20;100.00
34034;BME280;63481;52.588;22.472;2023-07-30T01:59:08;99258.00;;;17.21;100.00
34034;BME280;63481;52.588;22.472;2023-07-30T01:59:40;99265.02;;;17.18;100.00
34034;BME280;63481;52.588;22.472;2023-07-30T02:00:12;99259.80;;;17.16;100.00
34034;BME280;63481;52.588;22.472;2023-07-30T02:00:45;99260.55;;;17.12;100.00
34034;BME280;63481;52.588;22.472;2023-07-30T02:01:16;99263.84;;;17.12;100.00
34034;BME280;63481;52.588;22.472;2023-07-30T02:01:48;99262.05;;;17.14;100.00
34034;BME280;63481;52.588;22.472;2023-07-30T02:02:20;99262.98;;;17.18;100.00
34034;BME280;63481;52.588;22.472;2023-07-30T02:02:52;99259.35;;;17.18;100.00
34034;BME280;63481;52.588;22.472;2023-07-30T02:03:24;99263.30;;;17.17;100.00
34034;BME280;63481;52.588;22.472;2023-07-30T02:03:56;99264.59;;;17.18;100.00
34034;BME280;63481;52.588;22.472;2023-07-30T02:04:28;99266.98;;;17.23;100.00
34034;BME280;63481;52.588;22.472;2023-07-30T02:05:00;99265.81;;;17.22;100.00
34034;BME280;63481;52.588;22.472;2023-07-30T02:05:33;99267.16;;;17.22;100.00
34034;BME280;63481;52.588;22.472;2023-07-30T02:06:05;99271.21;;;17.18;100.00
34034;BME280;63481;52.588;22.472;2023-07-30T02:06:36;99268.36;;;17.16;100.00
34034;BME280;63481;52.588;22.472;2023-07-30T02:07:08;99267.27;;;17.15;100.00
34034;BME280;63481;52.588;22.472;2023-07-30T02:07:40;99271.11;;;17.11;100.00
34034;BME280;63481;52.588;22.472;2023-07-30T02:08:12;99270.48;;;17.08;100.00
34034;BME280;63481;52.588;22.472;2023-07-30T02:08:47;99269.17;;;17.07;100.00
34034;BME280;63481;52.588;22.472;2023-07-30T02:09:19;99270.09;;;17.09;100.00
34034;BME280;63481;52.588;22.472;2023-07-30T02:09:52;99270.03;;;17.10;100.00
34034;BME280;63481;52.588;22.472;2023-07-30T02:10:25;99271.33;;;17.10;100.00
34034;BME280;63481;52.588;22.472;2023-07-30T02:10:58;99269.45;;;17.12;100.00
34034;BME280;63481;52.588;22.472;2023-07-30T02:11:30;99270.35;;;17.13;100.00
34034;BME280;63481;52.588;22.472;2023-07-30T02:12:02;99271.17;;;17.10;100.00
34034;BME280;63481;52.588;22.472;2023-07-30T02:12:34;99274.89;;;17.10;100.00
34034;BME280;63481;52.588;22.472;2023-07-30T02:13:06;99277.48;;;17.10;100.00
34034;BME280;63481;52.588;22.472;2023-07-30T02:13:37;99275.77;;;17.07;100.00
34034;BME280;63481;52.588;22.472;2023-07-30T02:14:09;99277.64;;;17.05;100.00
34034;BME280;63481;52.588;22.472;2023-07-30T02:14:42;99274.95;;;17.06;100.00
34034;BME280;63481;52.588;22.472;2023-07-30T02:15:14;99276.14;;;17.06;100.00
34034;BME280;63481;52.588;22.472;2023-07-30T02:15:46;99274.41;;;17.08;100.00
34034;BME280;63481;52.588;22.472;2023-07-30T02:16:18;99276.56;;;17.12;100.00
34034;BME280;63481;52.588;22.472;2023-07-30T02:16:50;99277.48;;;17.12;100.00
34034;BME280;63481;52.588;22.472;2023-07-30T02:17:21;99278.70;;;17.12;100.00
34034;BME280;63481;52.588;22.472;2023-07-30T02:17:54;99279.90;;;17.13;100.00
34034;BME280;63481;52.588;22.472;2023-07-30T02:18:25;99281.45;;;17.15;100.00
34034;BME280;63481;52.588;22.472;2023-07-30T02:18:57;99279.67;;;17.16;100.00
34034;BME280;63481;52.588;22.472;2023-07-30T02:19:29;99282.36;;;17.19;100.00
34034;BME280;63481;52.588;22.472;2023-07-30T02:20:01;99286.61;;;17.21;100.00
34034;BME280;63481;52.588;22.472;2023-07-30T02:20:33;99287.59;;;17.24;100.00
34034;BME280;63481;52.588;22.472;2023-07-30T02:21:04;99286.29;;;17.23;100.00
34034;BME280;63481;52.588;22.472;2023-07-30T02:21:36;99289.25;;;17.24;100.00
34034;BME280;63481;52.588;22.472;2023-07-30T02:22:12;99286.66;;;17.25;100.00
34034;BME280;63481;52.588;22.472;2023-07-30T02:22:44;99292.70;;;17.25;100.00
34034;BME280;63481;52.588;22.472;2023-07-30T02:23:16;99288.91;;;17.26;100.00
34034;BME280;63481;52.588;22.472;2023-07-30T02:23:48;99294.58;;;17.27;100.00
34034;BME280;63481;52.588;22.472;2023-07-30T02:24:19;99292.32;;;17.25;100.00
34034;BME280;63481;52.588;22.472;2023-07-30T02:24:51;99295.17;;;17.26;100.00
34034;BME280;63481;52.588;22.472;2023-07-30T02:25:23;99295.98;;;17.30;100.00
34034;BME280;63481;52.588;22.472;2023-07-30T02:25:55;99296.04;;;17.31;100.00
34034;BME280;63481;52.588;22.472;2023-07-30T02:26:27;99292.89;;;17.33;100.00
34034;BME280;63481;52.588;22.472;2023-07-30T02:26:59;99292.79;;;17.33;100.00
34034;BME280;63481;52.588;22.472;2023-07-30T02:27:30;99292.25;;;17.34;100.00
34034;BME280;63481;52.588;22.472;2023-07-30T02:28:02;99294.54;;;17.40;100.00
34034;BME280;63481;52.588;22.472;2023-07-30T02:28:34;99293.25;;;17.40;100.00
34034;BME280;63481;52.588;22.472;2023-07-30T02:29:06;99292.17;;;17.39;100.00
34034;BME280;63481;52.588;22.472;2023-07-30T02:29:38;99291.98;;;17.31;100.00
34034;BME280;63481;52.588;22.472;2023-07-30T02:30:10;99289.64;;;17.21;100.00
34034;BME280;63481;52.588;22.472;2023-07-30T02:30:42;99294.27;;;17.24;100.00
34034;BME280;63481;52.588;22.472;2023-07-30T02:31:14;99291.03;;;17.24;100.00
34034;BME280;63481;52.588;22.472;2023-07-30T02:31:46;99294.54;;;17.21;100.00
34034;BME280;63481;52.588;22.472;2023-07-30T02:32:18;99295.73;;;17.21;100.00
34034;BME280;63481;52.588;22.472;2023-07-30T02:32:49;99295.69;;;17.18;100.00
34034;BME280;63481;52.588;22.472;2023-07-30T02:33:21;99294.11;;;17.17;100.00
34034;BME280;63481;52.588;22.472;2023-07-30T02:33:53;99296.86;;;17.16;100.00
34034;BME280;63481;52.588;22.472;2023-07-30T02:34:25;99297.23;;;17.19;100.00
34034;BME280;63481;52.588;22.472;2023-07-30T02:34:57;99294.48;;;17.19;100.00
34034;BME280;63481;52.588;22.472;2023-07-30T02:35:28;99292.83;;;17.18;100.00
34034;BME280;63481;52.588;22.472;2023-07-30T02:36:00;99293.20;;;17.15;100.00
34034;BME280;63481;52.588;22.472;2023-07-30T02:36:32;99298.75;;;17.15;100.00
34034;BME280;63481;52.588;22.472;2023-07-30T02:37:04;99294.71;;;17.12;100.00
34034;BME280;63481;52.588;22.472;2023-07-30T02:37:36;99295.69;;;17.11;100.00
34034;BME280;63481;52.588;22.472;2023-07-30T02:38:08;99298.77;;;17.09;100.00
34034;BME280;63481;52.588;22.472;2023-07-30T02:38:40;99303.13;;;17.07;100.00
34034;BME280;63481;52.588;22.472;2023-07-30T02:39:12;99299.84;;;17.08;100.00
34034;BME280;63481;52.588;22.472;2023-07-30T02:39:43;99304.95;;;17.09;100.00
34034;BME280;63481;52.588;22.472;2023-07-30T02:40:15;99303.93;;;17.08;100.00
34034;BME280;63481;52.588;22.472;2023-07-30T02:40:47;99304.90;;;17.08;100.00
34034;BME280;63481;52.588;22.472;2023-07-30T02:41:19;99305.29;;;17.09;100.00
34034;BME280;63481;52.588;22.472;2023-07-30T02:41:51;99306.89;;;17.11;100.00
34034;BME280;63481;52.588;22.472;2023-07-30T02:42:22;99305.11;;;17.16;100.00
34034;BME280;63481;52.588;22.472;2023-07-30T02:42:54;99307.81;;;17.19;100.00
34034;BME280;63481;52.588;22.472;2023-07-30T02:43:26;99306.98;;;17.20;100.00
34034;BME280;63481;52.588;22.472;2023-07-30T02:43:58;99309.52;;;17.21;100.00
34034;BME280;63481;52.588;22.472;2023-07-30T02:44:30;99310.96;;;17.24;100.00
34034;BME280;63481;52.588;22.472;2023-07-30T02:45:02;99312.77;;;17.25;100.00
34034;BME280;63481;52.588;22.472;2023-07-30T02:45:33;99314.59;;;17.28;100.00
34034;BME280;63481;52.588;22.472;2023-07-30T02:46:05;99311.23;;;17.30;100.00
34034;BME280;63481;52.588;22.472;2023-07-30T02:46:38;99313.88;;;17.31;100.00
34034;BME280;63481;52.588;22.472;2023-07-30T02:47:10;99313.34;;;17.31;100.00
34034;BME280;63481;52.588;22.472;2023-07-30T02:47:42;99311.92;;;17.33;100.00
34034;BME280;63481;52.588;22.472;2023-07-30T02:48:13;99308.43;;;17.33;100.00
34034;BME280;63481;52.588;22.472;2023-07-30T02:48:45;99307.77;;;17.35;100.00
34034;BME280;63481;52.588;22.472;2023-07-30T02:49:17;99311.32;;;17.36;100.00